createdAt,value
2023-02-09T00:02:17.670Z,0.11
2023-02-09T00:04:49.971Z,0.12
2023-02-09T00:07:21.835Z,0.13
2023-02-09T00:09:54.490Z,0.13
2023-02-09T00:12:44.773Z,0.12
2023-02-09T00:15:16.878Z,0.13
2023-02-09T00:17:48.843Z,0.16
2023-02-09T00:20:20.853Z,0.18
2023-02-09T00:22:52.852Z,0.17
2023-02-09T00:25:24.900Z,0.16
2023-02-09T00:27:56.744Z,0.14
2023-02-09T00:30:28.668Z,0.09
2023-02-09T00:33:01.261Z,0.09
2023-02-09T00:35:33.630Z,0.12
2023-02-09T00:38:05.532Z,0.08
2023-02-09T00:40:38.592Z,0.09
2023-02-09T00:43:11.960Z,0.08
2023-02-09T00:45:44.274Z,0.09
2023-02-09T00:48:16.219Z,0.11
2023-02-09T00:50:48.483Z,0.11
2023-02-09T00:53:21.490Z,0.15
2023-02-09T00:55:53.880Z,0.12
2023-02-09T00:58:25.870Z,0.12
2023-02-09T01:00:58.229Z,0.13
2023-02-09T01:03:30.319Z,0.13
2023-02-09T01:06:02.420Z,0.15
2023-02-09T01:08:34.551Z,0.13
2023-02-09T01:11:11.264Z,0.12
2023-02-09T01:13:44.317Z,0.11
2023-02-09T01:16:19.385Z,0.09
2023-02-09T01:18:51.986Z,0.11
2023-02-09T01:21:25.009Z,0.12
2023-02-09T01:23:57.374Z,0.11
2023-02-09T01:26:29.660Z,0.11
2023-02-09T01:29:01.692Z,0.12
2023-02-09T01:31:36.904Z,0.12
2023-02-09T01:34:09.365Z,0.14
2023-02-09T01:36:41.490Z,0.16
2023-02-09T01:39:15.156Z,0.15
2023-02-09T01:41:47.294Z,0.15
2023-02-09T01:44:23.214Z,0.18
2023-02-09T01:46:55.316Z,0.17
2023-02-09T01:49:28.915Z,0.16
2023-02-09T01:52:13.490Z,0.18
2023-02-09T01:54:48.434Z,0.17
2023-02-09T01:57:23.343Z,0.20
2023-02-09T02:00:01.614Z,0.20
2023-02-09T02:02:36.313Z,0.21
2023-02-09T02:05:10.506Z,0.20
2023-02-09T02:07:46.041Z,0.17
2023-02-09T02:10:18.629Z,0.19
2023-02-09T02:12:51.348Z,0.23
2023-02-09T02:15:29.904Z,0.22
2023-02-09T02:18:07.819Z,0.21
2023-02-09T02:20:51.866Z,0.21
2023-02-09T02:23:35.711Z,0.22
2023-02-09T02:26:25.671Z,0.24
2023-02-09T02:29:00.971Z,0.26
2023-02-09T02:31:59.867Z,0.26
2023-02-09T02:34:56.071Z,0.27
2023-02-09T02:37:51.502Z,0.30
2023-02-09T02:40:46.487Z,0.28
2023-02-09T02:43:27.593Z,0.28
2023-02-09T02:46:10.514Z,0.29
2023-02-09T02:48:48.763Z,0.29
2023-02-09T02:51:32.583Z,0.30
2023-02-09T02:54:08.217Z,0.28
2023-02-09T02:56:43.205Z,0.29
2023-02-09T02:59:18.292Z,0.31
2023-02-09T03:02:08.379Z,0.29
2023-02-09T03:04:41.917Z,0.32
2023-02-09T03:07:14.555Z,0.36
2023-02-09T03:09:55.272Z,0.32
2023-02-09T03:12:46.632Z,0.29
2023-02-09T03:15:47.095Z,0.30
2023-02-09T03:18:44.635Z,0.29
2023-02-09T03:21:20.111Z,0.30
2023-02-09T03:23:57.828Z,0.29
2023-02-09T03:26:44.398Z,0.28
2023-02-09T03:29:19.242Z,0.31
2023-02-09T03:31:52.863Z,0.31
2023-02-09T03:34:25.338Z,0.33
2023-02-09T03:36:59.131Z,0.28
2023-02-09T03:39:31.408Z,0.27
2023-02-09T03:42:03.572Z,0.29
2023-02-09T03:44:35.737Z,0.29
2023-02-09T03:47:10.596Z,0.31
2023-02-09T03:49:45.673Z,0.31
2023-02-09T03:52:18.432Z,0.32
2023-02-09T03:54:50.540Z,0.35
2023-02-09T03:57:22.943Z,0.38
2023-02-09T03:59:55.598Z,0.41
2023-02-09T04:02:27.605Z,0.43
2023-02-09T04:05:00.623Z,0.46
2023-02-09T04:07:33.120Z,0.46
2023-02-09T04:10:07.430Z,0.44
2023-02-09T04:12:40.289Z,0.47
2023-02-09T04:15:13.220Z,0.51
2023-02-09T04:17:45.731Z,0.52
2023-02-09T04:20:18.415Z,0.53
2023-02-09T04:22:50.646Z,0.54
2023-02-09T04:25:23.327Z,0.57
2023-02-09T04:27:55.449Z,0.58
2023-02-09T04:30:27.656Z,0.56
2023-02-09T04:32:59.742Z,0.58
2023-02-09T04:35:31.898Z,0.61
2023-02-09T04:38:04.607Z,0.62
2023-02-09T04:40:37.013Z,0.64
2023-02-09T04:43:09.688Z,0.67
2023-02-09T04:45:43.695Z,0.69
2023-02-09T04:48:19.368Z,0.68
2023-02-09T04:50:53.642Z,0.70
2023-02-09T04:53:26.418Z,0.69
2023-02-09T04:55:59.072Z,0.68
2023-02-09T04:58:48.841Z,0.70
2023-02-09T05:01:25.263Z,0.73
2023-02-09T05:03:57.702Z,0.78
2023-02-09T05:06:30.661Z,0.80
2023-02-09T05:09:03.386Z,0.81
2023-02-09T05:11:37.647Z,0.83
2023-02-09T05:14:10.130Z,0.87
2023-02-09T05:16:43.234Z,0.91
2023-02-09T05:19:16.447Z,0.89
2023-02-09T05:21:50.536Z,0.90
2023-02-09T05:24:23.891Z,0.89
2023-02-09T05:26:56.284Z,0.87
2023-02-09T05:29:28.687Z,0.86
2023-02-09T05:32:01.101Z,0.84
2023-02-09T05:34:33.560Z,0.79
2023-02-09T05:37:07.516Z,0.78
2023-02-09T05:39:42.469Z,0.78
2023-02-09T05:42:18.790Z,0.79
2023-02-09T05:44:52.743Z,0.81
2023-02-09T05:47:26.070Z,0.82
2023-02-09T05:49:58.362Z,0.86
2023-02-09T05:52:32.090Z,0.87
2023-02-09T05:55:04.667Z,0.88
2023-02-09T05:57:37.207Z,0.93
2023-02-09T06:00:09.924Z,0.94
2023-02-09T06:02:45.788Z,0.96
2023-02-09T06:05:20.003Z,0.96
2023-02-09T06:07:52.970Z,0.96
2023-02-09T06:10:25.580Z,0.95
2023-02-09T06:12:57.702Z,0.91
2023-02-09T06:15:30.418Z,0.91
2023-02-09T06:18:02.986Z,0.94
2023-02-09T06:20:35.264Z,0.93
2023-02-09T06:23:08.215Z,0.96
2023-02-09T06:25:42.021Z,1.02
2023-02-09T06:28:15.285Z,1.02
2023-02-09T06:30:55.262Z,1.06
2023-02-09T06:33:28.262Z,1.09
2023-02-09T06:36:01.238Z,1.14
2023-02-09T06:38:35.632Z,1.19
2023-02-09T06:41:08.406Z,1.23
2023-02-09T06:43:40.961Z,1.21
2023-02-09T06:46:15.335Z,1.24
2023-02-09T06:48:47.154Z,1.29
2023-02-09T06:51:19.498Z,1.47
2023-02-09T06:53:52.185Z,1.38
2023-02-09T06:56:24.703Z,1.44
2023-02-09T06:58:57.661Z,1.46
2023-02-09T07:01:29.904Z,1.52
2023-02-09T07:04:02.861Z,1.56
2023-02-09T07:06:35.403Z,1.64
2023-02-09T07:09:07.713Z,1.63
2023-02-09T07:11:40.860Z,1.67
2023-02-09T07:14:13.984Z,1.64
2023-02-09T07:16:46.675Z,1.69
2023-02-09T07:19:19.050Z,1.69
2023-02-09T07:21:51.414Z,1.74
2023-02-09T07:24:24.788Z,1.83
2023-02-09T07:26:57.211Z,1.91
2023-02-09T07:29:32.532Z,1.98
2023-02-09T07:32:06.216Z,2.02
2023-02-09T07:34:38.238Z,2.07
2023-02-09T07:37:11.090Z,2.06
2023-02-09T07:39:44.912Z,2.05
2023-02-09T07:42:18.177Z,2.10
2023-02-09T07:44:54.753Z,2.16
2023-02-09T07:47:27.704Z,2.21
2023-02-09T07:50:00.085Z,2.23
2023-02-09T07:52:32.893Z,2.24
2023-02-09T07:55:05.930Z,2.22
2023-02-09T07:57:38.278Z,2.24
2023-02-09T08:00:11.607Z,2.24
2023-02-09T08:02:46.882Z,2.24
2023-02-09T08:05:22.463Z,2.23
2023-02-09T08:07:56.424Z,2.25
2023-02-09T08:10:28.637Z,2.24
2023-02-09T08:13:02.704Z,2.24
2023-02-09T08:15:40.736Z,2.25
2023-02-09T08:18:16.525Z,2.32
2023-02-09T08:20:50.615Z,2.37
2023-02-09T08:23:26.055Z,2.43
2023-02-09T08:26:00.126Z,2.47
2023-02-09T08:28:43.672Z,2.50
2023-02-09T08:31:07.202Z,2.49
2023-02-09T08:33:39.660Z,2.46
2023-02-09T08:36:13.261Z,2.43
2023-02-09T08:38:46.759Z,2.42
2023-02-09T08:41:20.118Z,2.44
2023-02-09T08:43:52.781Z,2.47
2023-02-09T08:46:25.409Z,2.54
2023-02-09T08:48:57.618Z,2.58
2023-02-09T08:51:30.349Z,2.56
2023-02-09T08:54:02.790Z,2.55
2023-02-09T08:56:35.066Z,2.53
2023-02-09T08:59:07.643Z,2.52
2023-02-09T09:01:40.779Z,2.51
2023-02-09T09:04:12.989Z,2.50
2023-02-09T09:06:45.474Z,2.50
2023-02-09T09:09:19.138Z,2.49
2023-02-09T09:11:51.249Z,2.50
2023-02-09T09:14:25.846Z,2.58
2023-02-09T09:17:01.341Z,2.56
2023-02-09T09:19:33.577Z,2.54
2023-02-09T09:22:05.982Z,2.50
2023-02-09T09:24:40.195Z,2.51
2023-02-09T09:27:13.831Z,2.50
2023-02-09T09:29:46.405Z,2.51
2023-02-09T09:32:20.279Z,2.50
2023-02-09T09:34:56.463Z,2.54
2023-02-09T09:37:28.822Z,2.54
2023-02-09T09:40:01.283Z,2.55
2023-02-09T09:42:45.950Z,2.58
2023-02-09T09:45:22.077Z,2.62
2023-02-09T09:47:56.498Z,2.63
2023-02-09T09:50:40.385Z,2.65
2023-02-09T09:53:33.482Z,2.66
2023-02-09T09:56:09.070Z,2.72
2023-02-09T09:58:44.099Z,2.73
2023-02-09T10:01:18.949Z,2.76
2023-02-09T10:03:51.711Z,2.77
2023-02-09T10:06:25.300Z,2.80
2023-02-09T10:09:06.756Z,2.82
2023-02-09T10:11:48.356Z,2.88
2023-02-09T10:14:23.473Z,2.93
2023-02-09T10:16:55.410Z,3.00
2023-02-09T10:19:30.515Z,3.04
2023-02-09T10:22:03.229Z,3.06
2023-02-09T10:24:37.674Z,3.03
2023-02-09T10:27:24.975Z,3.00
2023-02-09T10:29:59.456Z,2.94
2023-02-09T10:32:42.437Z,2.89
2023-02-09T10:35:17.946Z,2.85
2023-02-09T10:37:53.365Z,2.83
2023-02-09T10:40:28.900Z,2.85
2023-02-09T10:43:19.406Z,2.88
2023-02-09T10:46:00.643Z,2.92
2023-02-09T10:48:35.798Z,2.91
2023-02-09T10:51:12.040Z,2.90
2023-02-09T10:53:58.454Z,2.85
2023-02-09T10:56:36.582Z,2.87
2023-02-09T10:59:19.951Z,2.89
2023-02-09T11:02:03.283Z,2.87
2023-02-09T11:04:42.794Z,2.88
2023-02-09T11:07:17.894Z,2.84
2023-02-09T11:09:52.122Z,2.87
2023-02-09T11:12:28.788Z,2.89
2023-02-09T11:15:01.797Z,2.90
2023-02-09T11:17:38.110Z,2.86
2023-02-09T11:20:25.226Z,2.84
2023-02-09T11:23:17.829Z,2.85
2023-02-09T11:25:53.494Z,2.88
2023-02-09T11:28:50.770Z,2.94
2023-02-09T11:31:27.179Z,3.00
2023-02-09T11:34:02.516Z,3.02
2023-02-09T11:36:54.512Z,2.98
2023-02-09T11:39:59.805Z,2.91
2023-02-09T11:42:45.575Z,2.90
2023-02-09T11:45:35.630Z,2.88
2023-02-09T11:48:20.347Z,2.83
2023-02-09T11:50:58.786Z,2.83
2023-02-09T11:53:46.019Z,2.83
2023-02-09T11:56:21.321Z,2.83
2023-02-09T11:59:14.005Z,2.86
2023-02-09T12:02:15.884Z,2.88
2023-02-09T12:04:57.117Z,2.86
2023-02-09T12:07:52.086Z,2.80
2023-02-09T12:10:37.513Z,2.84
2023-02-09T12:13:31.650Z,2.80
2023-02-09T12:16:25.088Z,2.77
2023-02-09T12:18:58.152Z,2.78
2023-02-09T12:21:37.856Z,2.77
2023-02-09T12:24:29.490Z,2.73
2023-02-09T12:27:02.315Z,2.70
2023-02-09T12:29:42.704Z,2.68
2023-02-09T12:32:17.422Z,2.65
2023-02-09T12:34:52.505Z,2.62
2023-02-09T12:37:29.928Z,2.60
2023-02-09T12:40:18.607Z,2.58
2023-02-09T12:42:53.776Z,2.55
2023-02-09T12:45:37.886Z,2.53
2023-02-09T12:48:18.302Z,2.53
2023-02-09T12:50:56.177Z,2.57
2023-02-09T12:53:37.899Z,2.59
2023-02-09T12:56:16.424Z,2.60
2023-02-09T12:58:51.570Z,2.61
2023-02-09T13:01:26.087Z,2.61
2023-02-09T13:04:01.344Z,2.64
2023-02-09T13:06:40.059Z,2.66
2023-02-09T13:09:21.544Z,2.61
2023-02-09T13:11:59.623Z,2.56
2023-02-09T13:14:32.642Z,2.54
2023-02-09T13:17:28.347Z,2.52
2023-02-09T13:20:03.953Z,2.50
2023-02-09T13:22:54.720Z,2.49
2023-02-09T13:25:38.764Z,2.45
2023-02-09T13:28:19.662Z,2.45
2023-02-09T13:30:52.527Z,2.48
2023-02-09T13:33:40.491Z,2.45
2023-02-09T13:36:25.460Z,2.45
2023-02-09T13:38:59.547Z,2.45
2023-02-09T13:41:37.751Z,2.48
2023-02-09T13:44:27.978Z,2.49
2023-02-09T13:47:02.483Z,2.47
2023-02-09T13:49:35.065Z,2.45
2023-02-09T13:52:20.818Z,2.42
2023-02-09T13:54:53.545Z,2.42
2023-02-09T13:57:32.494Z,2.42
2023-02-09T14:00:24.190Z,2.42
2023-02-09T14:03:01.454Z,2.41
2023-02-09T14:05:51.545Z,2.43
2023-02-09T14:08:25.277Z,2.43
2023-02-09T14:11:12.734Z,2.44
2023-02-09T14:13:48.000Z,2.42
2023-02-09T14:16:22.253Z,2.43
2023-02-09T14:18:58.972Z,2.41
2023-02-09T14:21:40.397Z,2.39
2023-02-09T14:24:24.941Z,2.36
2023-02-09T14:27:05.926Z,2.39
2023-02-09T14:29:38.940Z,2.38
2023-02-09T14:32:36.504Z,2.37
2023-02-09T14:35:23.423Z,2.35
2023-02-09T14:37:57.658Z,2.31
2023-02-09T14:40:32.059Z,2.32
2023-02-09T14:43:15.128Z,2.52
2023-02-09T14:45:49.973Z,2.33
2023-02-09T14:48:28.748Z,2.30
2023-02-09T14:51:13.157Z,2.28
2023-02-09T14:53:46.318Z,2.28
2023-02-09T14:56:28.173Z,2.25
2023-02-09T14:59:00.591Z,2.25
2023-02-09T15:01:32.657Z,2.26
2023-02-09T15:04:04.663Z,2.27
2023-02-09T15:06:37.168Z,2.42
2023-02-09T15:09:10.924Z,2.33
2023-02-09T15:12:01.217Z,2.33
2023-02-09T15:14:36.551Z,2.32
2023-02-09T15:17:17.660Z,2.29
2023-02-09T15:19:50.161Z,2.25
2023-02-09T15:22:23.171Z,2.26
2023-02-09T15:24:55.932Z,2.24
2023-02-09T15:27:36.811Z,2.28
2023-02-09T15:30:11.936Z,2.25
2023-02-09T15:32:44.570Z,2.22
2023-02-09T15:35:19.751Z,2.20
2023-02-09T15:37:57.565Z,2.22
2023-02-09T15:40:58.893Z,2.22
2023-02-09T15:43:49.312Z,2.24
2023-02-09T15:46:40.089Z,2.22
2023-02-09T15:49:12.670Z,2.24
2023-02-09T15:51:45.485Z,2.22
2023-02-09T15:54:21.800Z,2.19
2023-02-09T15:56:55.217Z,2.16
2023-02-09T15:59:28.262Z,2.15
2023-02-09T16:02:01.345Z,2.14
2023-02-09T16:04:34.759Z,2.16
2023-02-09T16:07:08.076Z,2.16
2023-02-09T16:09:42.844Z,2.12
2023-02-09T16:12:14.996Z,2.16
2023-02-09T16:14:47.214Z,2.14
2023-02-09T16:17:19.310Z,2.14
2023-02-09T16:19:52.046Z,2.15
2023-02-09T16:22:25.430Z,2.14
2023-02-09T16:24:57.992Z,2.17
2023-02-09T16:27:30.611Z,2.16
2023-02-09T16:30:03.004Z,2.13
2023-02-09T16:32:35.478Z,2.12
2023-02-09T16:35:16.709Z,2.10
2023-02-09T16:37:44.367Z,2.09
2023-02-09T16:40:25.964Z,2.10
2023-02-09T16:43:01.558Z,2.09
2023-02-09T16:45:38.099Z,2.08
2023-02-09T16:48:28.070Z,2.06
2023-02-09T16:51:00.689Z,2.07
2023-02-09T16:53:38.848Z,2.06
2023-02-09T16:56:15.664Z,2.05
2023-02-09T16:58:49.186Z,2.06
2023-02-09T17:01:24.096Z,2.09
2023-02-09T17:03:58.329Z,2.07
2023-02-09T17:06:31.408Z,2.07
2023-02-09T17:09:03.345Z,2.04
2023-02-09T17:11:35.459Z,1.99
2023-02-09T17:14:08.123Z,2.00
2023-02-09T17:16:43.762Z,1.99
2023-02-09T17:19:18.463Z,1.99
2023-02-09T17:21:50.727Z,2.02
2023-02-09T17:24:23.218Z,1.97
2023-02-09T17:26:55.508Z,1.92
2023-02-09T17:29:27.784Z,1.88
2023-02-09T17:32:01.177Z,1.85
2023-02-09T17:34:33.647Z,1.84
2023-02-09T17:37:06.094Z,1.85
2023-02-09T17:39:38.982Z,1.85
2023-02-09T17:42:14.351Z,1.90
2023-02-09T17:44:46.992Z,1.82
2023-02-09T17:47:21.301Z,1.78
2023-02-09T17:49:53.905Z,1.79
2023-02-09T17:52:26.089Z,1.77
2023-02-09T17:54:58.389Z,1.77
2023-02-09T17:57:30.344Z,1.79
2023-02-09T18:00:02.560Z,1.77
2023-02-09T18:02:35.561Z,1.79
2023-02-09T18:05:08.001Z,1.78
2023-02-09T18:07:40.513Z,1.79
2023-02-09T18:10:12.881Z,1.76
2023-02-09T18:12:45.785Z,1.79
2023-02-09T18:15:39.970Z,1.74
2023-02-09T18:18:12.542Z,1.72
2023-02-09T18:20:44.952Z,1.68
2023-02-09T18:23:17.364Z,1.65
2023-02-09T18:25:51.565Z,1.69
2023-02-09T18:28:24.184Z,1.70
2023-02-09T18:30:57.283Z,1.69
2023-02-09T18:33:29.657Z,1.67
2023-02-09T18:36:02.427Z,1.65
2023-02-09T18:38:36.292Z,1.65
2023-02-09T18:41:10.112Z,1.68
2023-02-09T18:43:42.910Z,1.69
2023-02-09T18:46:16.463Z,1.61
2023-02-09T18:48:48.696Z,1.60
2023-02-09T18:51:20.841Z,1.60
2023-02-09T18:53:53.052Z,1.60
2023-02-09T18:56:28.745Z,1.64
2023-02-09T18:59:00.704Z,1.60
2023-02-09T19:01:33.175Z,1.61
2023-02-09T19:04:05.375Z,1.59
2023-02-09T19:06:37.520Z,1.56
2023-02-09T19:09:09.766Z,1.50
2023-02-09T19:11:41.771Z,1.45
2023-02-09T19:14:32.152Z,1.43
2023-02-09T19:17:05.568Z,1.43
2023-02-09T19:19:39.055Z,1.52
2023-02-09T19:22:13.091Z,1.48
2023-02-09T19:24:46.016Z,1.53
2023-02-09T19:27:19.146Z,1.51
2023-02-09T19:29:56.572Z,1.42
2023-02-09T19:32:28.617Z,1.39
2023-02-09T19:35:00.833Z,1.40
2023-02-09T19:37:33.755Z,1.36
2023-02-09T19:40:07.598Z,1.37
2023-02-09T19:42:39.664Z,1.40
2023-02-09T19:45:11.740Z,1.38
2023-02-09T19:47:44.001Z,1.32
2023-02-09T19:50:17.562Z,1.30
2023-02-09T19:52:50.521Z,1.32
2023-02-09T19:55:24.128Z,1.28
2023-02-09T19:57:56.317Z,1.29
2023-02-09T20:00:28.570Z,1.32
2023-02-09T20:03:01.689Z,1.32
2023-02-09T20:05:34.034Z,1.29
2023-02-09T20:08:06.332Z,1.23
2023-02-09T20:10:41.497Z,1.21
2023-02-09T20:13:15.061Z,1.21
2023-02-09T20:15:47.686Z,1.17
2023-02-09T20:18:20.317Z,1.15
2023-02-09T20:20:52.756Z,1.12
2023-02-09T20:23:25.209Z,1.12
2023-02-09T20:25:57.352Z,1.09
2023-02-09T20:28:29.899Z,1.08
2023-02-09T20:31:02.199Z,1.07
2023-02-09T20:33:37.014Z,1.06
2023-02-09T20:36:10.762Z,1.13
2023-02-09T20:38:43.419Z,1.08
2023-02-09T20:41:18.555Z,1.09
2023-02-09T20:44:08.874Z,1.07
2023-02-09T20:46:42.617Z,1.11
2023-02-09T20:49:17.107Z,1.02
2023-02-09T20:51:49.822Z,1.03
2023-02-09T20:54:21.938Z,1.09
2023-02-09T20:56:54.132Z,1.05
2023-02-09T20:59:26.632Z,1.13
2023-02-09T21:01:59.999Z,1.04
2023-02-09T21:04:32.281Z,1.06
2023-02-09T21:07:04.649Z,1.07
2023-02-09T21:09:36.841Z,1.05
2023-02-09T21:12:09.130Z,1.00
2023-02-09T21:14:43.415Z,1.06
2023-02-09T21:17:15.376Z,1.05
2023-02-09T21:19:47.236Z,1.15
2023-02-09T21:22:19.403Z,0.95
2023-02-09T21:24:51.592Z,0.90
2023-02-09T21:27:25.227Z,0.89
2023-02-09T21:29:57.303Z,0.95
2023-02-09T21:32:29.385Z,0.93
2023-02-09T21:35:01.417Z,0.94
2023-02-09T21:37:33.745Z,0.96
2023-02-09T21:40:07.612Z,0.97
2023-02-09T21:42:41.170Z,1.00
2023-02-09T21:45:13.937Z,1.01
2023-02-09T21:47:45.874Z,1.07
2023-02-09T21:50:18.058Z,1.07
2023-02-09T21:52:50.494Z,1.04
2023-02-09T21:55:23.259Z,0.99
2023-02-09T21:57:55.686Z,1.03
2023-02-09T22:00:27.750Z,1.03
2023-02-09T22:02:59.857Z,0.99
2023-02-09T22:05:32.153Z,0.97
2023-02-09T22:08:04.144Z,1.01
2023-02-09T22:10:36.257Z,0.94
2023-02-09T22:13:09.722Z,0.90
2023-02-09T22:15:43.045Z,0.89
2023-02-09T22:18:15.470Z,0.93
2023-02-09T22:20:48.935Z,0.97
2023-02-09T22:23:21.137Z,0.97
2023-02-09T22:25:54.713Z,0.92
2023-02-09T22:28:27.004Z,0.87
2023-02-09T22:31:00.701Z,0.88
2023-02-09T22:33:32.831Z,0.89
2023-02-09T22:36:10.609Z,0.95
2023-02-09T22:38:44.727Z,0.88
2023-02-09T22:41:22.258Z,0.89
2023-02-09T22:44:03.101Z,0.88
2023-02-09T22:46:37.628Z,0.84
2023-02-09T22:49:12.546Z,0.81
2023-02-09T22:51:45.644Z,0.87
2023-02-09T22:54:19.730Z,0.81
2023-02-09T22:56:52.101Z,0.75
2023-02-09T22:59:24.200Z,0.72
2023-02-09T23:01:56.471Z,0.66
2023-02-09T23:04:28.818Z,0.63
2023-02-09T23:07:01.363Z,0.66
2023-02-09T23:09:33.393Z,0.72
2023-02-09T23:12:05.761Z,0.73
2023-02-09T23:14:37.869Z,0.72
2023-02-09T23:17:10.126Z,0.74
2023-02-09T23:19:45.130Z,0.74
2023-02-09T23:22:17.002Z,0.79
2023-02-09T23:24:48.952Z,0.89
2023-02-09T23:27:22.446Z,0.80
2023-02-09T23:29:56.024Z,0.76
2023-02-09T23:32:29.753Z,0.71
2023-02-09T23:35:02.022Z,0.67
2023-02-09T23:37:38.267Z,0.69
2023-02-09T23:40:08.197Z,0.67
2023-02-09T23:42:40.078Z,0.64
2023-02-09T23:45:12.156Z,0.69
2023-02-09T23:47:44.324Z,0.70
2023-02-09T23:50:16.352Z,0.67
2023-02-09T23:52:48.453Z,0.58
2023-02-09T23:55:20.454Z,0.55
2023-02-09T23:57:52.529Z,0.53
